JES2701 SABE-SAZN
Flight info
| Callsign | JES2701 |
|---|---|
| Flight time | 1h 42m |
| Altitude | 34000 |
| Route | PAL9 TORUL UT654 BIXIM UT669 TIMDO |
| Aircraft | A20N/M-SDE2E3FGHIRWXY/LB1 |
Departure
| Time | 2026-04-23 22:20 |
|---|---|
| Airport | Aeroparque Jorge Newbery (SABE) |
Arrival
| Time | 2026-04-24 00:03 |
|---|---|
| Airport | Presidente Perón International Airport (SAZN) |
| Time | Latitude | Longitude | Altitude | Speed | Heading |
|---|---|---|---|---|---|
| 2026-04-23 21:59 | -34.55753 | -58.41320 | 26 ft | 0 kts | 30° |
| 2026-04-23 22:08 | -34.55754 | -58.41321 | 26 ft | 1 kts | 30° |
| 2026-04-23 22:08 | -34.55766 | -58.41330 | 29 ft | 2 kts | 30° |
| 2026-04-23 22:09 | -34.55779 | -58.41338 | 26 ft | 2 kts | 13° |
| 2026-04-23 22:09 | -34.55794 | -58.41339 | 30 ft | 2 kts | 341° |
| 2026-04-23 22:09 | -34.55805 | -58.41333 | 30 ft | 0 kts | 306° |
| 2026-04-23 22:11 | -34.55797 | -58.41347 | 29 ft | 5 kts | 304° |
| 2026-04-23 22:11 | -34.55762 | -58.41410 | 27 ft | 12 kts | 302° |
| 2026-04-23 22:12 | -34.55722 | -58.41501 | 27 ft | 9 kts | 290° |
| 2026-04-23 22:12 | -34.55758 | -58.41577 | 28 ft | 10 kts | 218° |
| 2026-04-23 22:12 | -34.55763 | -58.41672 | 27 ft | 15 kts | 295° |
| 2026-04-23 22:12 | -34.55701 | -58.41805 | 29 ft | 20 kts | 304° |
| 2026-04-23 22:13 | -34.55653 | -58.41890 | 27 ft | 14 kts | 304° |
| 2026-04-23 22:13 | -34.55611 | -58.41965 | 27 ft | 13 kts | 304° |
| 2026-04-23 22:13 | -34.55574 | -58.42031 | 27 ft | 12 kts | 305° |
| 2026-04-23 22:13 | -34.55511 | -58.42133 | 28 ft | 18 kts | 307° |
| 2026-04-23 22:14 | -34.55439 | -58.42249 | 28 ft | 13 kts | 307° |
| 2026-04-23 22:14 | -34.55383 | -58.42339 | 28 ft | 6 kts | 306° |
| 2026-04-23 22:14 | -34.55365 | -58.42380 | 28 ft | 0 kts | 288° |
| 2026-04-23 22:16 | -34.55365 | -58.42381 | 28 ft | 1 kts | 288° |
| 2026-04-23 22:16 | -34.55361 | -58.42419 | 28 ft | 8 kts | 264° |
| 2026-04-23 22:17 | -34.55389 | -58.42458 | 28 ft | 9 kts | 208° |
| 2026-04-23 22:17 | -34.55443 | -58.42426 | 28 ft | 0 kts | 126° |
| 2026-04-23 22:19 | -34.55445 | -58.42423 | 28 ft | 3 kts | 126° |
| 2026-04-23 22:19 | -34.55589 | -58.42165 | 28 ft | 76 kts | 123° |
| 2026-04-23 22:20 | -34.56204 | -58.41063 | 27 ft | 156 kts | 123° |
| 2026-04-23 22:20 | -34.56866 | -58.39897 | 448 ft | 172 kts | 122° |
| 2026-04-23 22:20 | -34.57227 | -58.38995 | 825 ft | 183 kts | 101° |
| 2026-04-23 22:20 | -34.57093 | -58.37397 | 1274 ft | 205 kts | 67° |
| 2026-04-23 22:21 | -34.56342 | -58.35793 | 1563 ft | 235 kts | 57° |
| 2026-04-23 22:21 | -34.55454 | -58.34004 | 2055 ft | 258 kts | 61° |
| 2026-04-23 22:21 | -34.54627 | -58.32006 | 2825 ft | 264 kts | 66° |
| 2026-04-23 22:21 | -34.53709 | -58.30135 | 3896 ft | 265 kts | 47° |
| 2026-04-23 22:22 | -34.52161 | -58.28840 | 4588 ft | 270 kts | 20° |
| 2026-04-23 22:22 | -34.50360 | -58.28528 | 4941 ft | 266 kts | 352° |
| 2026-04-23 22:22 | -34.48633 | -58.29269 | 5196 ft | 264 kts | 322° |
| 2026-04-23 22:22 | -34.47425 | -58.30895 | 5712 ft | 261 kts | 298° |
| 2026-04-23 22:23 | -34.46774 | -58.32980 | 6356 ft | 271 kts | 275° |
| 2026-04-23 22:23 | -34.46970 | -58.35273 | 6977 ft | 281 kts | 249° |
| 2026-04-23 22:23 | -34.48016 | -58.37314 | 7592 ft | 294 kts | 229° |
| 2026-04-23 22:23 | -34.49509 | -58.39094 | 8161 ft | 309 kts | 223° |
| 2026-04-23 22:24 | -34.51163 | -58.40859 | 8678 ft | 324 kts | 222° |
| 2026-04-23 22:24 | -34.52878 | -58.42725 | 9189 ft | 338 kts | 224° |
| 2026-04-23 22:24 | -34.54629 | -58.44715 | 9713 ft | 351 kts | 225° |
| 2026-04-23 22:24 | -34.56420 | -58.46817 | 10223 ft | 363 kts | 226° |
| 2026-04-23 22:25 | -34.58244 | -58.48997 | 10705 ft | 374 kts | 226° |
| 2026-04-23 22:25 | -34.60117 | -58.51249 | 11162 ft | 383 kts | 226° |
| 2026-04-23 22:25 | -34.61995 | -58.53513 | 11645 ft | 387 kts | 226° |
| 2026-04-23 22:25 | -34.63911 | -58.55822 | 12142 ft | 389 kts | 226° |
| 2026-04-23 22:26 | -34.65841 | -58.58149 | 12645 ft | 392 kts | 227° |
| 2026-04-23 22:26 | -34.67772 | -58.60478 | 13164 ft | 394 kts | 227° |
| 2026-04-23 22:26 | -34.69720 | -58.62830 | 13686 ft | 396 kts | 227° |
| 2026-04-23 22:26 | -34.71681 | -58.65198 | 14204 ft | 398 kts | 227° |
| 2026-04-23 22:27 | -34.73655 | -58.67583 | 14774 ft | 401 kts | 227° |
| 2026-04-23 22:27 | -34.75493 | -58.69805 | 15343 ft | 403 kts | 227° |
| 2026-04-23 22:27 | -34.77489 | -58.72219 | 15957 ft | 405 kts | 228° |
| 2026-04-23 22:27 | -34.79491 | -58.74641 | 16581 ft | 407 kts | 228° |
| 2026-04-23 22:28 | -34.81502 | -58.77075 | 17222 ft | 409 kts | 229° |
| 2026-04-23 22:28 | -34.83520 | -58.79521 | 17873 ft | 410 kts | 229° |
| 2026-04-23 22:28 | -34.85542 | -58.81973 | 18528 ft | 411 kts | 229° |
| 2026-04-23 22:28 | -34.87571 | -58.84435 | 19109 ft | 411 kts | 229° |
| 2026-04-23 22:29 | -34.89600 | -58.86900 | 19699 ft | 412 kts | 230° |
| 2026-04-23 22:29 | -34.91631 | -58.89367 | 20301 ft | 412 kts | 230° |
| 2026-04-23 22:29 | -34.93632 | -58.91800 | 20911 ft | 411 kts | 230° |
| 2026-04-23 22:29 | -34.95681 | -58.94294 | 21543 ft | 411 kts | 231° |
| 2026-04-23 22:30 | -34.97681 | -58.96729 | 22180 ft | 410 kts | 231° |
| 2026-04-23 22:30 | -34.99693 | -58.99182 | 22835 ft | 409 kts | 231° |
| 2026-04-23 22:30 | -35.01705 | -59.01635 | 23503 ft | 407 kts | 231° |
| 2026-04-23 22:30 | -35.03705 | -59.04076 | 24105 ft | 405 kts | 232° |
| 2026-04-23 22:31 | -35.05693 | -59.06504 | 24679 ft | 403 kts | 232° |
| 2026-04-23 22:31 | -35.07671 | -59.08922 | 25262 ft | 401 kts | 232° |
| 2026-04-23 22:31 | -35.09635 | -59.11323 | 25859 ft | 398 kts | 233° |
| 2026-04-23 22:31 | -35.11562 | -59.13681 | 26463 ft | 395 kts | 233° |
| 2026-04-23 22:32 | -35.13493 | -59.16046 | 27087 ft | 391 kts | 233° |
| 2026-04-23 22:32 | -35.15404 | -59.18388 | 27727 ft | 387 kts | 234° |
| 2026-04-23 22:32 | -35.17291 | -59.20701 | 28369 ft | 382 kts | 234° |
| 2026-04-23 22:32 | -35.19150 | -59.22982 | 29036 ft | 376 kts | 235° |
| 2026-04-23 22:33 | -35.20985 | -59.25234 | 29716 ft | 370 kts | 235° |
| 2026-04-23 22:33 | -35.22784 | -59.27444 | 30379 ft | 363 kts | 236° |
| 2026-04-23 22:33 | -35.24547 | -59.29610 | 30972 ft | 355 kts | 236° |
| 2026-04-23 22:33 | -35.26270 | -59.31729 | 31561 ft | 347 kts | 237° |
| 2026-04-23 22:34 | -35.27951 | -59.33797 | 32165 ft | 339 kts | 237° |
| 2026-04-23 22:34 | -35.29603 | -59.35838 | 32515 ft | 337 kts | 237° |
| 2026-04-23 22:34 | -35.31234 | -59.37862 | 32774 ft | 338 kts | 237° |
| 2026-04-23 22:34 | -35.32910 | -59.39940 | 33036 ft | 339 kts | 237° |
| 2026-04-23 22:35 | -35.34547 | -59.41966 | 33299 ft | 339 kts | 237° |
| 2026-04-23 22:35 | -35.36154 | -59.44056 | 33564 ft | 333 kts | 242° |
| 2026-04-23 22:35 | -35.37541 | -59.46286 | 33831 ft | 326 kts | 246° |
| 2026-04-23 22:35 | -35.38854 | -59.48555 | 34077 ft | 327 kts | 246° |
| 2026-04-23 22:36 | -35.41542 | -59.53161 | 34135 ft | 339 kts | 245° |
| 2026-04-23 22:36 | -35.44345 | -59.57955 | 34137 ft | 352 kts | 245° |
| 2026-04-23 22:37 | -35.47259 | -59.62943 | 34137 ft | 366 kts | 245° |
| 2026-04-23 22:37 | -35.50279 | -59.68118 | 34136 ft | 380 kts | 244° |
| 2026-04-23 22:38 | -35.53405 | -59.73482 | 34135 ft | 393 kts | 244° |
| 2026-04-23 22:38 | -35.56633 | -59.79028 | 34132 ft | 405 kts | 244° |
| 2026-04-23 22:39 | -35.59928 | -59.84690 | 34131 ft | 407 kts | 244° |
| 2026-04-23 22:39 | -35.63196 | -59.90314 | 34128 ft | 406 kts | 244° |
| 2026-04-23 22:40 | -35.66477 | -59.95981 | 34131 ft | 406 kts | 244° |
| 2026-04-23 22:41 | -35.71393 | -60.04491 | 34126 ft | 406 kts | 244° |
| 2026-04-23 22:41 | -35.74658 | -60.10156 | 34128 ft | 406 kts | 244° |
| 2026-04-23 22:42 | -35.77921 | -60.15824 | 34125 ft | 405 kts | 244° |
| 2026-04-23 22:42 | -35.81162 | -60.21464 | 34122 ft | 405 kts | 244° |
| 2026-04-23 22:43 | -35.84414 | -60.27132 | 34123 ft | 405 kts | 244° |
| 2026-04-23 22:43 | -35.87665 | -60.32809 | 34120 ft | 405 kts | 244° |
| 2026-04-23 22:44 | -35.90914 | -60.38489 | 34122 ft | 405 kts | 244° |
| 2026-04-23 22:44 | -35.94156 | -60.44168 | 34112 ft | 405 kts | 244° |
| 2026-04-23 22:45 | -35.97397 | -60.49854 | 34117 ft | 405 kts | 244° |
| 2026-04-23 22:45 | -36.00634 | -60.55543 | 34113 ft | 405 kts | 244° |
| 2026-04-23 22:46 | -36.03867 | -60.61232 | 34112 ft | 404 kts | 244° |
| 2026-04-23 22:46 | -36.07097 | -60.66928 | 34111 ft | 405 kts | 244° |
| 2026-04-23 22:47 | -36.10328 | -60.72634 | 34109 ft | 405 kts | 244° |
| 2026-04-23 22:47 | -36.13554 | -60.78341 | 34106 ft | 405 kts | 244° |
| 2026-04-23 22:48 | -36.16766 | -60.84071 | 34109 ft | 405 kts | 245° |
| 2026-04-23 22:48 | -36.19428 | -60.88836 | 34106 ft | 405 kts | 245° |
| 2026-04-23 22:49 | -36.23152 | -60.95502 | 34102 ft | 405 kts | 245° |
| 2026-04-23 22:49 | -36.26355 | -61.01245 | 34108 ft | 405 kts | 245° |
| 2026-04-23 22:50 | -36.29557 | -61.06994 | 34098 ft | 405 kts | 245° |
| 2026-04-23 22:50 | -36.32761 | -61.12758 | 34102 ft | 406 kts | 244° |
| 2026-04-23 22:51 | -36.35957 | -61.18518 | 34100 ft | 405 kts | 244° |
| 2026-04-23 22:51 | -36.39156 | -61.24294 | 34098 ft | 406 kts | 244° |
| 2026-04-23 22:52 | -36.42351 | -61.30079 | 34096 ft | 406 kts | 244° |
| 2026-04-23 22:52 | -36.45549 | -61.35873 | 34093 ft | 407 kts | 244° |
| 2026-04-23 22:53 | -36.48745 | -61.41673 | 34090 ft | 407 kts | 244° |
| 2026-04-23 22:53 | -36.51946 | -61.47493 | 34091 ft | 407 kts | 244° |
| 2026-04-23 22:54 | -36.55139 | -61.53310 | 34089 ft | 407 kts | 244° |
| 2026-04-23 22:54 | -36.58334 | -61.59141 | 34081 ft | 408 kts | 244° |
| 2026-04-23 22:55 | -36.61511 | -61.64946 | 34086 ft | 408 kts | 244° |
| 2026-04-23 22:55 | -36.64705 | -61.70796 | 34085 ft | 409 kts | 244° |
| 2026-04-23 22:56 | -36.67899 | -61.76654 | 34080 ft | 409 kts | 244° |
| 2026-04-23 22:56 | -36.71095 | -61.82526 | 34077 ft | 409 kts | 244° |
| 2026-04-23 22:57 | -36.74289 | -61.88405 | 34078 ft | 410 kts | 244° |
| 2026-04-23 22:57 | -36.77487 | -61.94300 | 34077 ft | 410 kts | 244° |
| 2026-04-23 22:58 | -36.80683 | -62.00203 | 34077 ft | 410 kts | 244° |
| 2026-04-23 22:58 | -36.83882 | -62.06123 | 34072 ft | 412 kts | 244° |
| 2026-04-23 22:59 | -36.87083 | -62.12055 | 34072 ft | 412 kts | 244° |
| 2026-04-23 22:59 | -36.90268 | -62.17968 | 34070 ft | 412 kts | 244° |
| 2026-04-23 23:00 | -36.93473 | -62.23928 | 34070 ft | 413 kts | 244° |
| 2026-04-23 23:00 | -36.96674 | -62.29894 | 34074 ft | 414 kts | 243° |
| 2026-04-23 23:01 | -36.99880 | -62.35878 | 34071 ft | 414 kts | 243° |
| 2026-04-23 23:01 | -37.03084 | -62.41869 | 34070 ft | 415 kts | 243° |
| 2026-04-23 23:02 | -37.06287 | -62.47869 | 34068 ft | 415 kts | 243° |
| 2026-04-23 23:02 | -37.08954 | -62.52875 | 34068 ft | 416 kts | 243° |
| 2026-04-23 23:03 | -37.12693 | -62.59903 | 34064 ft | 417 kts | 243° |
| 2026-04-23 23:03 | -37.15909 | -62.65962 | 34061 ft | 418 kts | 243° |
| 2026-04-23 23:04 | -37.18595 | -62.71029 | 34064 ft | 419 kts | 242° |
| 2026-04-23 23:04 | -37.21820 | -62.77122 | 34063 ft | 420 kts | 242° |
| 2026-04-23 23:05 | -37.25050 | -62.83236 | 34061 ft | 421 kts | 242° |
| 2026-04-23 23:05 | -37.28283 | -62.89368 | 34055 ft | 421 kts | 242° |
| 2026-04-23 23:06 | -37.31516 | -62.95510 | 34060 ft | 422 kts | 242° |
| 2026-04-23 23:06 | -37.34669 | -63.01676 | 34054 ft | 419 kts | 246° |
| 2026-04-23 23:07 | -37.37214 | -63.08227 | 34051 ft | 418 kts | 249° |
| 2026-04-23 23:07 | -37.39718 | -63.14823 | 34049 ft | 418 kts | 249° |
| 2026-04-23 23:08 | -37.42229 | -63.21441 | 34050 ft | 419 kts | 249° |
| 2026-04-23 23:08 | -37.44717 | -63.28029 | 34054 ft | 419 kts | 249° |
| 2026-04-23 23:09 | -37.47219 | -63.34677 | 34058 ft | 420 kts | 249° |
| 2026-04-23 23:09 | -37.49717 | -63.41330 | 34043 ft | 420 kts | 248° |
| 2026-04-23 23:10 | -37.52216 | -63.47996 | 34042 ft | 421 kts | 248° |
| 2026-04-23 23:10 | -37.54714 | -63.54676 | 34051 ft | 421 kts | 248° |
| 2026-04-23 23:11 | -37.57209 | -63.61362 | 34037 ft | 422 kts | 248° |
| 2026-04-23 23:11 | -37.59703 | -63.68063 | 34047 ft | 422 kts | 248° |
| 2026-04-23 23:12 | -37.62180 | -63.74729 | 34037 ft | 422 kts | 248° |
| 2026-04-23 23:12 | -37.64671 | -63.81449 | 34047 ft | 423 kts | 248° |
| 2026-04-23 23:13 | -37.67164 | -63.88189 | 34044 ft | 423 kts | 248° |
| 2026-04-23 23:13 | -37.69646 | -63.94915 | 34044 ft | 423 kts | 248° |
| 2026-04-23 23:14 | -37.72114 | -64.01617 | 34037 ft | 423 kts | 248° |
| 2026-04-23 23:14 | -37.74589 | -64.08353 | 34039 ft | 422 kts | 248° |
| 2026-04-23 23:15 | -37.77063 | -64.15101 | 34035 ft | 422 kts | 248° |
| 2026-04-23 23:15 | -37.79528 | -64.21837 | 34034 ft | 422 kts | 248° |
| 2026-04-23 23:16 | -37.81991 | -64.28585 | 34035 ft | 422 kts | 248° |
| 2026-04-23 23:16 | -37.84453 | -64.35343 | 34042 ft | 422 kts | 248° |
| 2026-04-23 23:17 | -37.86894 | -64.42059 | 34040 ft | 423 kts | 248° |
| 2026-04-23 23:17 | -37.89348 | -64.48826 | 34043 ft | 423 kts | 248° |
| 2026-04-23 23:18 | -37.91796 | -64.55593 | 34037 ft | 423 kts | 248° |
| 2026-04-23 23:18 | -37.94243 | -64.62372 | 34042 ft | 423 kts | 248° |
| 2026-04-23 23:19 | -37.96692 | -64.69169 | 34035 ft | 423 kts | 248° |
| 2026-04-23 23:19 | -37.99135 | -64.75967 | 34046 ft | 424 kts | 248° |
| 2026-04-23 23:20 | -38.01558 | -64.82726 | 34040 ft | 424 kts | 249° |
| 2026-04-23 23:20 | -38.04001 | -64.89552 | 34043 ft | 425 kts | 249° |
| 2026-04-23 23:21 | -38.06440 | -64.96388 | 34040 ft | 425 kts | 249° |
| 2026-04-23 23:21 | -38.08892 | -65.03280 | 34038 ft | 433 kts | 248° |
| 2026-04-23 23:22 | -38.11380 | -65.10282 | 34037 ft | 434 kts | 248° |
| 2026-04-23 23:22 | -38.13842 | -65.17224 | 33969 ft | 434 kts | 248° |
| 2026-04-23 23:22 | -38.15075 | -65.20708 | 33601 ft | 427 kts | 248° |
| 2026-04-23 23:23 | -38.16290 | -65.24143 | 32965 ft | 424 kts | 248° |
| 2026-04-23 23:23 | -38.17495 | -65.27560 | 32268 ft | 423 kts | 248° |
| 2026-04-23 23:23 | -38.18697 | -65.30971 | 31571 ft | 422 kts | 248° |
| 2026-04-23 23:23 | -38.19893 | -65.34369 | 30893 ft | 421 kts | 248° |
| 2026-04-23 23:24 | -38.21086 | -65.37762 | 30238 ft | 419 kts | 248° |
| 2026-04-23 23:24 | -38.22274 | -65.41145 | 29500 ft | 418 kts | 248° |
| 2026-04-23 23:24 | -38.23457 | -65.44516 | 28751 ft | 416 kts | 248° |
| 2026-04-23 23:24 | -38.24634 | -65.47874 | 28028 ft | 415 kts | 248° |
| 2026-04-23 23:25 | -38.25804 | -65.51217 | 27318 ft | 413 kts | 248° |
| 2026-04-23 23:25 | -38.26956 | -65.54511 | 26627 ft | 411 kts | 248° |
| 2026-04-23 23:25 | -38.28116 | -65.57833 | 25952 ft | 409 kts | 248° |
| 2026-04-23 23:25 | -38.29268 | -65.61135 | 25281 ft | 407 kts | 248° |
| 2026-04-23 23:26 | -38.30412 | -65.64415 | 24652 ft | 404 kts | 248° |
| 2026-04-23 23:26 | -38.31551 | -65.67688 | 24019 ft | 402 kts | 248° |
| 2026-04-23 23:26 | -38.32682 | -65.70941 | 23363 ft | 400 kts | 248° |
| 2026-04-23 23:26 | -38.33791 | -65.74133 | 22643 ft | 397 kts | 248° |
| 2026-04-23 23:27 | -38.34906 | -65.77345 | 21929 ft | 395 kts | 248° |
| 2026-04-23 23:27 | -38.36012 | -65.80536 | 21228 ft | 392 kts | 248° |
| 2026-04-23 23:27 | -38.37108 | -65.83702 | 20554 ft | 390 kts | 248° |
| 2026-04-23 23:27 | -38.38200 | -65.86855 | 19884 ft | 387 kts | 248° |
| 2026-04-23 23:28 | -38.39283 | -65.89986 | 19230 ft | 384 kts | 248° |
| 2026-04-23 23:28 | -38.40359 | -65.93100 | 18598 ft | 382 kts | 248° |
| 2026-04-23 23:28 | -38.41425 | -65.96186 | 17917 ft | 379 kts | 248° |
| 2026-04-23 23:28 | -38.42487 | -65.99249 | 17204 ft | 377 kts | 248° |
| 2026-04-23 23:29 | -38.43548 | -66.02301 | 16510 ft | 374 kts | 248° |
| 2026-04-23 23:29 | -38.44597 | -66.05318 | 15838 ft | 371 kts | 248° |
| 2026-04-23 23:29 | -38.45638 | -66.08314 | 15176 ft | 368 kts | 248° |
| 2026-04-23 23:29 | -38.46669 | -66.11285 | 14530 ft | 365 kts | 248° |
| 2026-04-23 23:30 | -38.47691 | -66.14239 | 13893 ft | 362 kts | 248° |
| 2026-04-23 23:30 | -38.48706 | -66.17172 | 13200 ft | 359 kts | 248° |
| 2026-04-23 23:30 | -38.49706 | -66.20067 | 12686 ft | 353 kts | 248° |
| 2026-04-23 23:30 | -38.50724 | -66.23022 | 12229 ft | 375 kts | 248° |
| 2026-04-23 23:31 | -38.51779 | -66.26084 | 11780 ft | 376 kts | 248° |
| 2026-04-23 23:31 | -38.52826 | -66.29120 | 11333 ft | 370 kts | 248° |
| 2026-04-23 23:31 | -38.53862 | -66.32126 | 10894 ft | 368 kts | 248° |
| 2026-04-23 23:31 | -38.54889 | -66.35111 | 10464 ft | 366 kts | 248° |
| 2026-04-23 23:32 | -38.55898 | -66.38048 | 10056 ft | 364 kts | 248° |
| 2026-04-23 23:32 | -38.56912 | -66.41000 | 9582 ft | 362 kts | 248° |
| 2026-04-23 23:32 | -38.57918 | -66.43937 | 9120 ft | 360 kts | 248° |
| 2026-04-23 23:32 | -38.58919 | -66.46859 | 8659 ft | 357 kts | 248° |
| 2026-04-23 23:33 | -38.59913 | -66.49766 | 8232 ft | 355 kts | 248° |
| 2026-04-23 23:33 | -38.60900 | -66.52647 | 8062 ft | 353 kts | 248° |
| 2026-04-23 23:33 | -38.61868 | -66.55546 | 7982 ft | 354 kts | 251° |
| 2026-04-23 23:33 | -38.62681 | -66.58517 | 7699 ft | 354 kts | 252° |
| 2026-04-23 23:34 | -38.63468 | -66.61493 | 7223 ft | 352 kts | 252° |
| 2026-04-23 23:34 | -38.64245 | -66.64448 | 6743 ft | 347 kts | 252° |
| 2026-04-23 23:34 | -38.65015 | -66.67367 | 6257 ft | 346 kts | 252° |
| 2026-04-23 23:34 | -38.65784 | -66.70284 | 5754 ft | 346 kts | 252° |
| 2026-04-23 23:35 | -38.66557 | -66.73211 | 5278 ft | 347 kts | 252° |
| 2026-04-23 23:35 | -38.67325 | -66.76115 | 5054 ft | 343 kts | 252° |
| 2026-04-23 23:35 | -38.68085 | -66.78992 | 5006 ft | 347 kts | 252° |
| 2026-04-23 23:35 | -38.68858 | -66.81922 | 5007 ft | 346 kts | 252° |
| 2026-04-23 23:36 | -38.69630 | -66.84848 | 5005 ft | 347 kts | 252° |
| 2026-04-23 23:36 | -38.70400 | -66.87774 | 5007 ft | 348 kts | 252° |
| 2026-04-23 23:36 | -38.71180 | -66.90743 | 5006 ft | 352 kts | 252° |
| 2026-04-23 23:36 | -38.71959 | -66.93710 | 5003 ft | 351 kts | 252° |
| 2026-04-23 23:37 | -38.72740 | -66.96688 | 5005 ft | 352 kts | 252° |
| 2026-04-23 23:37 | -38.73518 | -66.99656 | 5008 ft | 352 kts | 252° |
| 2026-04-23 23:37 | -38.74296 | -67.02630 | 5008 ft | 353 kts | 252° |
| 2026-04-23 23:37 | -38.75073 | -67.05603 | 5010 ft | 352 kts | 252° |
| 2026-04-23 23:38 | -38.75850 | -67.08582 | 5013 ft | 352 kts | 252° |
| 2026-04-23 23:38 | -38.76616 | -67.11517 | 5011 ft | 351 kts | 252° |
| 2026-04-23 23:38 | -38.77391 | -67.14494 | 5014 ft | 353 kts | 252° |
| 2026-04-23 23:38 | -38.78167 | -67.17477 | 5013 ft | 352 kts | 252° |
| 2026-04-23 23:39 | -38.78940 | -67.20453 | 5012 ft | 352 kts | 252° |
| 2026-04-23 23:39 | -38.79713 | -67.23431 | 5014 ft | 352 kts | 252° |
| 2026-04-23 23:39 | -38.80484 | -67.26407 | 5014 ft | 352 kts | 252° |
| 2026-04-23 23:39 | -38.81257 | -67.29392 | 5013 ft | 352 kts | 252° |
| 2026-04-23 23:40 | -38.82028 | -67.32373 | 5017 ft | 352 kts | 252° |
| 2026-04-23 23:40 | -38.82799 | -67.35356 | 5019 ft | 352 kts | 252° |
| 2026-04-23 23:40 | -38.83567 | -67.38334 | 5019 ft | 352 kts | 252° |
| 2026-04-23 23:40 | -38.84337 | -67.41324 | 5018 ft | 353 kts | 253° |
| 2026-04-23 23:41 | -38.85106 | -67.44311 | 5018 ft | 352 kts | 253° |
| 2026-04-23 23:41 | -38.85873 | -67.47292 | 5020 ft | 352 kts | 253° |
| 2026-04-23 23:41 | -38.86639 | -67.50277 | 5023 ft | 352 kts | 253° |
| 2026-04-23 23:41 | -38.87405 | -67.53263 | 5022 ft | 352 kts | 253° |
| 2026-04-23 23:42 | -38.88159 | -67.56207 | 5021 ft | 352 kts | 253° |
| 2026-04-23 23:42 | -38.88923 | -67.59192 | 5021 ft | 353 kts | 253° |
| 2026-04-23 23:42 | -38.89688 | -67.62188 | 5018 ft | 353 kts | 253° |
| 2026-04-23 23:42 | -38.90451 | -67.65178 | 5019 ft | 353 kts | 253° |
| 2026-04-23 23:43 | -38.91216 | -67.68177 | 5017 ft | 353 kts | 253° |
| 2026-04-23 23:43 | -38.91979 | -67.71174 | 5017 ft | 353 kts | 253° |
| 2026-04-23 23:43 | -38.92743 | -67.74177 | 5017 ft | 353 kts | 253° |
| 2026-04-23 23:43 | -38.93504 | -67.77173 | 5019 ft | 353 kts | 253° |
| 2026-04-23 23:44 | -38.94199 | -67.80196 | 5022 ft | 353 kts | 258° |
| 2026-04-23 23:44 | -38.94608 | -67.83313 | 5019 ft | 353 kts | 265° |
| 2026-04-23 23:44 | -38.94741 | -67.86454 | 5021 ft | 352 kts | 268° |
| 2026-04-23 23:44 | -38.94848 | -67.89600 | 5020 ft | 353 kts | 268° |
| 2026-04-23 23:45 | -38.94963 | -67.92747 | 4971 ft | 353 kts | 268° |
| 2026-04-23 23:45 | -38.95015 | -67.95876 | 4633 ft | 344 kts | 270° |
| 2026-04-23 23:45 | -38.94998 | -67.98833 | 4112 ft | 327 kts | 270° |
| 2026-04-23 23:45 | -38.94966 | -68.01714 | 3372 ft | 319 kts | 269° |
| 2026-04-23 23:46 | -38.94938 | -68.04551 | 2564 ft | 314 kts | 268° |
| 2026-04-23 23:46 | -38.94918 | -68.07290 | 2192 ft | 297 kts | 268° |
| 2026-04-23 23:46 | -38.94906 | -68.09850 | 2050 ft | 275 kts | 268° |
| 2026-04-23 23:46 | -38.94901 | -68.12232 | 2027 ft | 284 kts | 268° |
| 2026-04-23 23:47 | -38.94905 | -68.14878 | 2019 ft | 300 kts | 268° |
| 2026-04-23 23:47 | -38.94902 | -68.16652 | 2019 ft | 300 kts | 269° |
| 2026-04-23 23:47 | -38.94893 | -68.20245 | 2021 ft | 301 kts | 269° |
| 2026-04-23 23:47 | -38.94878 | -68.22895 | 2153 ft | 298 kts | 271° |
| 2026-04-23 23:48 | -38.94789 | -68.24690 | 2440 ft | 298 kts | 271° |
| 2026-04-23 23:48 | -38.94646 | -68.27355 | 2878 ft | 300 kts | 272° |
| 2026-04-23 23:48 | -38.94583 | -68.30040 | 3361 ft | 300 kts | 267° |
| 2026-04-23 23:48 | -38.94623 | -68.32694 | 3969 ft | 303 kts | 262° |
| 2026-04-23 23:49 | -38.96834 | -68.37263 | 5246 ft | 324 kts | 217° |
| 2026-04-23 23:49 | -38.98934 | -68.38412 | 5876 ft | 338 kts | 195° |
| 2026-04-23 23:49 | -39.01326 | -68.38451 | 6509 ft | 355 kts | 173° |
| 2026-04-23 23:50 | -39.03640 | -68.37335 | 7114 ft | 356 kts | 151° |
| 2026-04-23 23:50 | -39.05492 | -68.35194 | 7728 ft | 364 kts | 129° |
| 2026-04-23 23:50 | -39.06747 | -68.32330 | 8359 ft | 370 kts | 117° |
| 2026-04-23 23:50 | -39.07858 | -68.29318 | 8998 ft | 373 kts | 116° |
| 2026-04-23 23:51 | -39.08942 | -68.26329 | 9608 ft | 359 kts | 117° |
| 2026-04-23 23:51 | -39.09971 | -68.23428 | 9916 ft | 356 kts | 116° |
| 2026-04-23 23:51 | -39.10998 | -68.20515 | 10011 ft | 358 kts | 116° |
| 2026-04-23 23:51 | -39.12025 | -68.17593 | 10020 ft | 357 kts | 116° |
| 2026-04-23 23:52 | -39.13047 | -68.14680 | 10021 ft | 357 kts | 116° |
| 2026-04-23 23:52 | -39.14070 | -68.11762 | 10020 ft | 357 kts | 116° |
| 2026-04-23 23:52 | -39.15092 | -68.08844 | 10020 ft | 356 kts | 116° |
| 2026-04-23 23:52 | -39.16100 | -68.05967 | 10020 ft | 356 kts | 116° |
| 2026-04-23 23:53 | -39.17119 | -68.03050 | 10022 ft | 357 kts | 116° |
| 2026-04-23 23:53 | -39.17936 | -68.00050 | 10018 ft | 352 kts | 100° |
| 2026-04-23 23:53 | -39.17915 | -67.96975 | 9927 ft | 338 kts | 77° |
| 2026-04-23 23:53 | -39.17063 | -67.94212 | 9508 ft | 330 kts | 53° |
| 2026-04-23 23:54 | -39.15541 | -67.92057 | 8931 ft | 322 kts | 32° |
| 2026-04-23 23:54 | -39.13621 | -67.90705 | 8295 ft | 309 kts | 14° |
| 2026-04-23 23:54 | -39.11610 | -67.89749 | 7674 ft | 306 kts | 14° |
| 2026-04-23 23:54 | -39.09621 | -67.88785 | 7058 ft | 304 kts | 14° |
| 2026-04-23 23:55 | -39.07682 | -67.87832 | 6466 ft | 301 kts | 15° |
| 2026-04-23 23:55 | -39.05732 | -67.86870 | 5840 ft | 298 kts | 15° |
| 2026-04-23 23:55 | -39.03802 | -67.85917 | 5292 ft | 293 kts | 16° |
| 2026-04-23 23:55 | -39.01944 | -67.84991 | 5083 ft | 277 kts | 17° |
| 2026-04-23 23:56 | -39.00208 | -67.84122 | 5021 ft | 259 kts | 17° |
| 2026-04-23 23:56 | -38.98589 | -67.83371 | 5008 ft | 232 kts | 6° |
| 2026-04-23 23:56 | -38.97128 | -67.83188 | 5039 ft | 192 kts | 354° |
| 2026-04-23 23:56 | -38.95892 | -67.83416 | 5024 ft | 171 kts | 332° |
| 2026-04-23 23:57 | -38.95004 | -67.84369 | 5025 ft | 167 kts | 298° |
| 2026-04-23 23:57 | -38.94727 | -67.85776 | 5023 ft | 162 kts | 270° |
| 2026-04-23 23:57 | -38.94764 | -67.87135 | 5022 ft | 144 kts | 268° |
| 2026-04-23 23:57 | -38.94813 | -67.88422 | 4985 ft | 146 kts | 268° |
| 2026-04-23 23:58 | -38.94864 | -67.89726 | 4708 ft | 146 kts | 268° |
| 2026-04-23 23:58 | -38.94912 | -67.91031 | 4197 ft | 147 kts | 267° |
| 2026-04-23 23:58 | -38.94956 | -67.92330 | 3657 ft | 148 kts | 266° |
| 2026-04-23 23:58 | -38.94916 | -67.93632 | 3248 ft | 142 kts | 271° |
| 2026-04-23 23:59 | -38.94862 | -67.94890 | 2868 ft | 144 kts | 267° |
| 2026-04-23 23:59 | -38.94848 | -67.96211 | 2671 ft | 149 kts | 266° |
| 2026-04-23 23:59 | -38.94868 | -67.97550 | 2509 ft | 151 kts | 264° |
| 2026-04-23 23:59 | -38.94879 | -67.98891 | 2371 ft | 149 kts | 265° |
| 2026-04-24 00:00 | -38.94884 | -68.00229 | 2225 ft | 151 kts | 265° |
| 2026-04-24 00:00 | -38.94890 | -68.01579 | 2072 ft | 151 kts | 265° |
| 2026-04-24 00:00 | -38.94885 | -68.02968 | 1917 ft | 159 kts | 268° |
| 2026-04-24 00:00 | -38.94885 | -68.04380 | 1741 ft | 159 kts | 267° |
| 2026-04-24 00:01 | -38.94895 | -68.05812 | 1580 ft | 160 kts | 268° |
| 2026-04-24 00:01 | -38.94892 | -68.07207 | 1432 ft | 154 kts | 268° |
| 2026-04-24 00:01 | -38.94904 | -68.08576 | 1292 ft | 153 kts | 269° |
| 2026-04-24 00:01 | -38.94915 | -68.09905 | 1185 ft | 148 kts | 269° |
| 2026-04-24 00:02 | -38.94913 | -68.11222 | 1098 ft | 147 kts | 270° |
| 2026-04-24 00:02 | -38.94908 | -68.12535 | 1038 ft | 147 kts | 270° |
| 2026-04-24 00:02 | -38.94901 | -68.13814 | 951 ft | 143 kts | 270° |
| 2026-04-24 00:02 | -38.94901 | -68.15009 | 894 ft | 97 kts | 270° |
| 2026-04-24 00:03 | -38.94900 | -68.15360 | 896 ft | 0 kts | 270° |
| 2026-04-24 00:03 | -38.94905 | -68.15405 | 898 ft | 11 kts | 248° |
| 2026-04-24 00:03 | -38.94913 | -68.15496 | 900 ft | 2 kts | 336° |
| 2026-04-24 00:03 | -38.94906 | -68.15486 | 900 ft | 1 kts | 55° |
| 2026-04-24 00:04 | -38.94904 | -68.15460 | 899 ft | 5 kts | 98° |
| 2026-04-24 00:04 | -38.94902 | -68.15392 | 897 ft | 12 kts | 87° |
| 2026-04-24 00:04 | -38.94900 | -68.15253 | 894 ft | 19 kts | 90° |
| 2026-04-24 00:04 | -38.94924 | -68.15116 | 894 ft | 16 kts | 121° |
| 2026-04-24 00:05 | -38.94971 | -68.15043 | 895 ft | 8 kts | 134° |
| 2026-04-24 00:05 | -38.95011 | -68.14991 | 896 ft | 9 kts | 134° |
| 2026-04-24 00:05 | -38.95061 | -68.14924 | 896 ft | 11 kts | 131° |
| 2026-04-24 00:05 | -38.95090 | -68.14822 | 897 ft | 13 kts | 95° |
| 2026-04-24 00:06 | -38.95091 | -68.14693 | 897 ft | 16 kts | 89° |
| 2026-04-24 00:06 | -38.95089 | -68.14544 | 897 ft | 18 kts | 89° |
| 2026-04-24 00:06 | -38.95089 | -68.14379 | 897 ft | 19 kts | 89° |
| 2026-04-24 00:06 | -38.95087 | -68.14234 | 897 ft | 11 kts | 89° |
| 2026-04-24 00:07 | -38.95084 | -68.14127 | 897 ft | 10 kts | 101° |
| 2026-04-24 00:07 | -38.95134 | -68.14088 | 897 ft | 7 kts | 194° |
| 2026-04-24 00:07 | -38.95155 | -68.14092 | 897 ft | 1 kts | 182° |
| 2026-04-24 00:07 | -38.95156 | -68.14092 | 897 ft | 0 kts | 182° |